createdAt,value
2023-03-08T00:14:55.511Z,5.33
2023-03-08T00:29:57.853Z,5.03
2023-03-08T00:45:01.912Z,4.77
2023-03-08T01:00:08.278Z,5.80
2023-03-08T01:15:11.168Z,5.37
2023-03-08T01:30:13.883Z,5.07
2023-03-08T01:45:54.182Z,4.33
2023-03-08T02:00:57.670Z,4.47
2023-03-08T02:16:00.968Z,3.93
2023-03-08T02:31:04.731Z,3.00
2023-03-08T02:46:07.161Z,3.50
2023-03-08T03:01:13.744Z,2.90
2023-03-08T03:16:18.263Z,4.50
2023-03-08T03:31:22.586Z,6.30
2023-03-08T03:46:25.453Z,5.63
2023-03-08T04:01:31.809Z,5.10
2023-03-08T04:16:45.336Z,3.87
2023-03-08T04:32:00.140Z,4.57
2023-03-08T04:47:09.332Z,6.00
2023-03-08T05:02:18.265Z,6.17
2023-03-08T05:17:22.391Z,7.27
2023-03-08T05:32:25.189Z,7.27
2023-03-08T05:47:30.205Z,7.47
2023-03-08T06:02:32.768Z,7.13
2023-03-08T06:17:35.265Z,6.73
2023-03-08T06:32:38.045Z,9.40
2023-03-08T06:47:42.123Z,9.27
2023-03-08T07:02:45.459Z,8.47
2023-03-08T07:17:49.613Z,9.73
2023-03-08T07:32:53.861Z,14.57
2023-03-08T07:47:56.306Z,15.90
2023-03-08T08:02:58.649Z,17.77
2023-03-08T08:18:01.294Z,20.67
2023-03-08T08:33:03.899Z,17.67
2023-03-08T08:48:06.470Z,18.00
2023-03-08T09:03:08.891Z,16.47
2023-03-08T09:18:11.308Z,17.67
2023-03-08T09:33:13.672Z,19.00
2023-03-08T09:48:26.551Z,18.73
2023-03-08T10:03:58.958Z,18.83
2023-03-08T10:19:19.699Z,18.57
2023-03-08T10:34:29.084Z,18.13
2023-03-08T10:49:31.689Z,18.40
2023-03-08T11:04:33.986Z,16.20
2023-03-08T11:20:13.688Z,16.60
2023-03-08T11:35:19.539Z,14.10
2023-03-08T11:50:31.852Z,16.50
2023-03-08T12:05:38.850Z,18.93
2023-03-08T12:20:43.697Z,17.57
2023-03-08T12:35:59.963Z,22.67
2023-03-08T12:51:16.321Z,20.23
2023-03-08T13:06:25.687Z,17.47
2023-03-08T13:21:41.366Z,22.60
2023-03-08T13:36:48.369Z,18.80
2023-03-08T13:51:53.941Z,20.10
2023-03-08T14:07:00.922Z,23.40
2023-03-08T14:22:32.359Z,20.23
2023-03-08T14:37:44.480Z,20.57
2023-03-08T14:52:49.324Z,18.10
2023-03-08T15:07:53.348Z,21.10
2023-03-08T15:23:00.112Z,25.53
2023-03-08T15:38:02.458Z,44.83
2023-03-08T15:53:04.937Z,45.27
2023-03-08T16:08:07.222Z,49.30
2023-03-08T16:23:09.702Z,39.87
2023-03-08T16:38:12.049Z,64.50
2023-03-08T16:53:16.488Z,55.53
2023-03-08T17:08:26.339Z,28.73
2023-03-08T17:23:28.716Z,43.57
2023-03-08T17:38:31.950Z,34.40
2023-03-08T17:53:34.754Z,60.80
2023-03-08T18:08:37.026Z,46.03
2023-03-08T18:23:39.334Z,63.33
2023-03-08T18:38:44.993Z,93.33
2023-03-08T18:53:47.474Z,82.27
2023-03-08T19:08:49.815Z,84.90
2023-03-08T19:23:52.745Z,67.03
2023-03-08T19:38:56.886Z,66.37
2023-03-08T19:53:59.859Z,66.47
2023-03-08T20:09:04.332Z,145.77
2023-03-08T20:24:09.266Z,113.47
2023-03-08T20:39:21.013Z,51.00
2023-03-08T20:54:25.260Z,43.90
2023-03-08T21:24:45.353Z,42.03
2023-03-08T21:39:47.968Z,48.23
2023-03-08T21:54:50.496Z,40.10
2023-03-08T22:09:52.794Z,81.97
2023-03-08T22:24:55.090Z,53.73
2023-03-08T22:39:57.536Z,45.13
2023-03-08T22:54:59.841Z,38.57
2023-03-08T23:10:02.175Z,34.53
2023-03-08T23:25:05.343Z,32.83
2023-03-08T23:40:11.008Z,24.90
2023-03-08T23:55:13.489Z,22.23
